Time;durP1;ratioP1;P1;durP2;ratioP2;P2;SDS_P1;SDS_P2;PMS_P1;PMS_P2;Temp;Humidity;BMP_temperature;BMP_pressure;BME280_temperature;BME280_humidity;BME280_pressure;Samples;Min_cycle;Max_cycle;Signal;HPM_P1;HPM_P2
2022/02/27 00:00:09;;;;;;;42.13;28.90;;;;;;;;;;5015509;28;20507;-79
2022/02/27 00:02:40;;;;;;;40.13;28.33;;;;;;;;;;5033469;28;20036;-78
2022/02/27 00:05:25;;;;;;;37.15;26.55;;;;;;;;;;5016143;28;20030;-79
2022/02/27 00:07:57;;;;;;;37.50;24.38;;;;;;;;;;5032337;28;20046;-78
2022/02/27 00:10:23;;;;;;;36.38;26.00;;;;;;;;;;5015690;28;20029;-78
2022/02/27 00:13:02;;;;;;;32.63;25.65;;;;;;;;;;5015939;28;20029;-78
2022/02/27 00:15:33;;;;;;;39.95;26.70;;;;;;;;;;5031923;28;20092;-79
2022/02/27 00:18:04;;;;;;;54.65;38.28;;;;;;;;;;5033260;28;20021;-80
2022/02/27 00:20:44;;;;;;;39.70;27.38;;;;;;;;;;5033312;28;20029;-78
2022/02/27 00:23:11;;;;;;;30.77;23.77;;;;;;;;;;5031834;28;20013;-79
2022/02/27 00:25:43;;;;;;;36.63;25.00;;;;;;;;;;5033193;28;20026;-79
2022/02/27 00:28:09;;;;;;;32.85;22.95;;;;;;;;;;5033127;28;20380;-78
2022/02/27 00:30:48;;;;;;;35.72;25.48;;;;;;;;;;5016324;28;20459;-78
2022/02/27 00:33:40;;;;;;;32.35;23.60;;;;;;;;;;5033803;28;20021;-79
2022/02/27 00:36:15;;;;;;;32.40;21.90;;;;;;;;;;4967403;28;20037;-79
2022/02/27 00:41:40;;;;;;;27.17;20.67;;;;;;;;;;4987869;28;20030;-79
2022/02/27 00:44:10;;;;;;;24.58;18.35;;;;;;;;;;5032526;28;20096;-79
2022/02/27 00:46:45;;;;;;;26.63;19.40;;;;;;;;;;5033872;28;20027;-79
2022/02/27 00:49:21;;;;;;;23.50;16.65;;;;;;;;;;5028654;28;20080;-79
2022/02/27 00:51:50;;;;;;;21.95;15.50;;;;;;;;;;5027351;28;20489;-79
2022/02/27 00:54:19;;;;;;;28.75;22.38;;;;;;;;;;5033737;28;20033;-79
2022/02/27 00:56:45;;;;;;;31.02;21.90;;;;;;;;;;5015608;28;20079;-79
2022/02/27 00:59:14;;;;;;;26.67;20.60;;;;;;;;;;5015824;28;20060;-79
2022/02/27 01:01:43;;;;;;;25.77;17.65;;;;;;;;;;5015553;28;20048;-79
2022/02/27 01:04:36;;;;;;;20.83;15.38;;;;;;;;;;5015821;28;20054;-79
2022/02/27 01:07:19;;;;;;;17.98;12.90;;;;;;;;;;4957419;28;20087;-79
2022/02/27 01:13:13;;;;;;;17.88;12.80;;;;;;;;;;5002806;28;20052;-80
2022/02/27 01:15:41;;;;;;;29.10;20.35;;;;;;;;;;4994795;28;20125;-80
2022/02/27 01:18:09;;;;;;;38.20;28.88;;;;;;;;;;5013304;28;20033;-79
2022/02/27 01:20:38;;;;;;;42.90;28.52;;;;;;;;;;5013317;28;20123;-79
2022/02/27 01:23:22;;;;;;;86.13;53.22;;;;;;;;;;5013038;28;20505;-79
2022/02/27 01:26:01;;;;;;;120.40;79.70;;;;;;;;;;5011747;28;20572;-79
2022/02/27 01:28:35;;;;;;;41.53;29.73;;;;;;;;;;5013468;28;20453;-78
2022/02/27 01:31:04;;;;;;;20.23;14.65;;;;;;;;;;5013202;28;20153;-79
2022/02/27 01:37:12;;;;;;;16.67;10.80;;;;;;;;;;4975866;28;20084;-79
2022/02/27 01:39:39;;;;;;;13.95;10.20;;;;;;;;;;4992976;28;20037;-79
2022/02/27 01:45:21;;;;;;;12.60;10.20;;;;;;;;;;4989833;28;20125;-79
2022/02/27 01:54:36;;;;;;;13.32;9.93;;;;;;;;;;5011657;28;20045;-79
2022/02/27 01:57:33;;;;;;;34.95;22.15;;;;;;;;;;5012831;28;20133;-79
2022/02/27 02:00:07;;;;;;;26.48;18.48;;;;;;;;;;4994925;28;20034;-79
2022/02/27 02:02:55;;;;;;;27.63;19.73;;;;;;;;;;5012863;28;20025;-79
2022/02/27 02:05:51;;;;;;;26.23;18.02;;;;;;;;;;5013688;28;20026;-79
2022/02/27 02:09:00;;;;;;;18.83;13.23;;;;;;;;;;5031635;28;20134;-79
2022/02/27 02:17:50;;;;;;;11.40;8.65;;;;;;;;;;4988706;28;20120;-79
2022/02/27 02:20:47;;;;;;;7.97;5.97;;;;;;;;;;5032407;28;20060;-79
2022/02/27 02:24:02;;;;;;;8.98;6.90;;;;;;;;;;5032233;28;20098;-79
2022/02/27 02:26:43;;;;;;;10.95;7.72;;;;;;;;;;4951998;28;20132;-79
2022/02/27 02:29:13;;;;;;;8.50;7.28;;;;;;;;;;5011444;28;20078;-79
2022/02/27 02:32:03;;;;;;;10.68;7.38;;;;;;;;;;5014316;28;20096;-79
2022/02/27 02:34:41;;;;;;;9.07;6.53;;;;;;;;;;5032408;28;20379;-79
2022/02/27 02:37:38;;;;;;;;;;;;;;;;;;;;;
2022/02/27 02:43:19;;;;;;;7.87;6.40;;;;;;;;;;5019877;28;20036;-80
2022/02/27 02:46:31;;;;;;;7.05;5.82;;;;;;;;;;5014018;28;20360;-80
2022/02/27 02:49:06;;;;;;;8.73;6.32;;;;;;;;;;5009919;28;20061;-79
2022/02/27 02:52:15;;;;;;;7.93;6.22;;;;;;;;;;5009807;28;20093;-80
2022/02/27 02:54:42;;;;;;;7.75;6.07;;;;;;;;;;5009163;28;20128;-80
2022/02/27 02:57:21;;;;;;;8.05;6.82;;;;;;;;;;5010128;28;20038;-80
2022/02/27 02:59:50;;;;;;;11.70;8.00;;;;;;;;;;5010134;28;20049;-80
2022/02/27 03:02:20;;;;;;;9.73;6.68;;;;;;;;;;4993263;28;20041;-80
2022/02/27 03:04:46;;;;;;;6.45;5.45;;;;;;;;;;5010857;28;20045;-80
2022/02/27 03:07:12;;;;;;;7.93;6.57;;;;;;;;;;5013582;28;20609;-80
2022/02/27 03:10:11;;;;;;;7.18;6.22;;;;;;;;;;4996671;28;20197;-79
2022/02/27 03:12:37;;;;;;;7.85;5.63;;;;;;;;;;4998029;28;20049;-79
2022/02/27 03:15:17;;;;;;;6.78;5.57;;;;;;;;;;4997150;28;20087;-79
2022/02/27 03:17:46;;;;;;;7.68;6.25;;;;;;;;;;5035346;28;20025;-80
2022/02/27 03:20:21;;;;;;;9.88;6.40;;;;;;;;;;5017471;28;20443;-79
2022/02/27 03:22:51;;;;;;;6.95;5.45;;;;;;;;;;5035428;28;20029;-78
2022/02/27 03:25:20;;;;;;;6.50;4.63;;;;;;;;;;5035272;28;20049;-78
2022/02/27 03:27:46;;;;;;;8.27;6.38;;;;;;;;;;5035548;28;20377;-80
2022/02/27 03:30:12;;;;;;;7.82;6.03;;;;;;;;;;5017765;28;20044;-79
2022/02/27 03:32:38;;;;;;;9.95;7.65;;;;;;;;;;5017325;28;20378;-77
2022/02/27 03:35:05;;;;;;;8.65;6.82;;;;;;;;;;5035139;28;20128;-78
2022/02/27 03:37:31;;;;;;;9.27;7.32;;;;;;;;;;5017279;28;20113;-78
2022/02/27 03:39:57;;;;;;;7.85;6.05;;;;;;;;;;5032832;28;20056;-79
2022/02/27 03:42:23;;;;;;;7.80;6.78;;;;;;;;;;5034899;28;20032;-79
2022/02/27 03:44:49;;;;;;;8.32;7.40;;;;;;;;;;5017147;28;20113;-79
2022/02/27 03:47:15;;;;;;;9.30;7.07;;;;;;;;;;5034775;28;20516;-80
2022/02/27 03:49:41;;;;;;;6.82;5.82;;;;;;;;;;5034663;28;20476;-80
2022/02/27 03:52:07;;;;;;;8.35;7.53;;;;;;;;;;5034749;28;20104;-80
2022/02/27 03:54:36;;;;;;;8.38;6.10;;;;;;;;;;5034504;28;20096;-80
2022/02/27 03:57:02;;;;;;;7.45;5.45;;;;;;;;;;5034703;28;20025;-79
2022/02/27 03:59:28;;;;;;;7.93;6.90;;;;;;;;;;5034658;28;20113;-80
2022/02/27 04:01:55;;;;;;;9.35;7.50;;;;;;;;;;5034588;28;20029;-79
2022/02/27 04:04:21;;;;;;;8.98;6.80;;;;;;;;;;5034558;28;20067;-79
2022/02/27 04:06:47;;;;;;;15.38;9.93;;;;;;;;;;5034367;28;20025;-80
2022/02/27 04:09:13;;;;;;;21.02;12.80;;;;;;;;;;5034267;28;20058;-79
2022/02/27 04:11:39;;;;;;;8.38;6.82;;;;;;;;;;5034297;28;20026;-80
2022/02/27 04:14:05;;;;;;;11.07;7.75;;;;;;;;;;5034223;28;20087;-79
2022/02/27 04:16:31;;;;;;;7.53;5.95;;;;;;;;;;5033424;28;20060;-79
2022/02/27 04:18:57;;;;;;;6.93;4.50;;;;;;;;;;5034236;28;20497;-78
2022/02/27 04:21:23;;;;;;;9.73;6.00;;;;;;;;;;5034229;28;20084;-79
2022/02/27 04:23:49;;;;;;;7.07;5.85;;;;;;;;;;5016069;28;20397;-79
2022/02/27 04:26:16;;;;;;;6.60;4.85;;;;;;;;;;5034010;28;20442;-79
2022/02/27 04:28:42;;;;;;;6.40;5.57;;;;;;;;;;5033991;28;20439;-79
2022/02/27 04:31:08;;;;;;;8.77;5.07;;;;;;;;;;5034034;28;20022;-78
2022/02/27 04:33:34;;;;;;;11.60;7.32;;;;;;;;;;5034182;28;20022;-78
2022/02/27 04:36:00;;;;;;;9.27;6.95;;;;;;;;;;5033911;28;20083;-78
2022/02/27 04:38:26;;;;;;;10.32;7.35;;;;;;;;;;5033891;28;20061;-78
2022/02/27 04:40:52;;;;;;;7.97;6.90;;;;;;;;;;5033566;28;20065;-78
2022/02/27 04:43:19;;;;;;;9.20;7.35;;;;;;;;;;5033617;28;20040;-78
2022/02/27 04:45:45;;;;;;;11.32;8.43;;;;;;;;;;5033671;28;20465;-78
2022/02/27 04:48:11;;;;;;;10.75;8.40;;;;;;;;;;5033559;28;20203;-78
2022/02/27 04:50:37;;;;;;;8.00;6.97;;;;;;;;;;5015916;28;20072;-78
2022/02/27 04:53:03;;;;;;;9.95;7.93;;;;;;;;;;5033263;28;20025;-78
2022/02/27 04:55:29;;;;;;;10.75;7.95;;;;;;;;;;5033557;28;20026;-78
2022/02/27 04:57:55;;;;;;;10.25;7.13;;;;;;;;;;5033289;28;20036;-78
2022/02/27 05:00:21;;;;;;;8.10;6.90;;;;;;;;;;5033590;28;20045;-78
2022/02/27 05:02:48;;;;;;;14.15;9.43;;;;;;;;;;5033048;28;20037;-78
2022/02/27 05:05:14;;;;;;;11.07;8.13;;;;;;;;;;5033176;28;20029;-78
2022/02/27 05:07:40;;;;;;;11.25;8.80;;;;;;;;;;5033423;28;20033;-78
2022/02/27 05:10:08;;;;;;;10.38;7.80;;;;;;;;;;5032869;28;20127;-78
2022/02/27 05:12:36;;;;;;;11.77;8.30;;;;;;;;;;5032870;28;20120;-78
2022/02/27 05:15:02;;;;;;;9.00;7.30;;;;;;;;;;5020211;28;20034;-78
2022/02/27 05:17:28;;;;;;;9.82;8.45;;;;;;;;;;5014818;28;20432;-78
2022/02/27 05:19:54;;;;;;;11.68;9.77;;;;;;;;;;5032101;28;20043;-78
2022/02/27 05:22:20;;;;;;;10.40;8.30;;;;;;;;;;5032462;28;20464;-78
2022/02/27 05:24:46;;;;;;;10.35;7.82;;;;;;;;;;5032545;28;20096;-78
2022/02/27 05:27:13;;;;;;;9.20;7.65;;;;;;;;;;5031777;28;20041;-78
2022/02/27 05:29:39;;;;;;;11.00;7.95;;;;;;;;;;5014476;28;20480;-78
2022/02/27 05:32:05;;;;;;;9.75;8.65;;;;;;;;;;5031685;28;20036;-78
2022/02/27 05:34:31;;;;;;;11.35;8.82;;;;;;;;;;5032212;28;20029;-78
2022/02/27 05:36:57;;;;;;;11.35;8.80;;;;;;;;;;5032163;28;20033;-78
2022/02/27 05:39:23;;;;;;;11.93;8.25;;;;;;;;;;5014365;28;20048;-78
2022/02/27 05:41:50;;;;;;;11.48;9.50;;;;;;;;;;5032121;28;20037;-78
2022/02/27 05:44:16;;;;;;;12.57;9.63;;;;;;;;;;5013838;28;20057;-78
2022/02/27 05:46:42;;;;;;;12.07;8.98;;;;;;;;;;5014261;28;20045;-78
2022/02/27 05:49:08;;;;;;;11.55;9.02;;;;;;;;;;5031626;28;20041;-78
2022/02/27 05:51:34;;;;;;;11.90;9.73;;;;;;;;;;5032104;28;20159;-78
2022/02/27 05:54:00;;;;;;;10.73;8.93;;;;;;;;;;5032080;28;20076;-78
2022/02/27 05:56:26;;;;;;;15.63;10.63;;;;;;;;;;5031628;28;20025;-78
2022/02/27 05:58:53;;;;;;;14.77;10.48;;;;;;;;;;5031433;28;20130;-78
2022/02/27 06:01:19;;;;;;;13.38;10.82;;;;;;;;;;5013772;28;20404;-79
2022/02/27 06:03:45;;;;;;;13.85;11.93;;;;;;;;;;5013888;28;20029;-78
2022/02/27 06:06:11;;;;;;;18.60;12.55;;;;;;;;;;5031401;28;20045;-78
2022/02/27 06:08:37;;;;;;;17.55;12.20;;;;;;;;;;5013548;28;20393;-78
2022/02/27 06:11:03;;;;;;;14.57;11.38;;;;;;;;;;5014929;28;20045;-77
2022/02/27 06:13:29;;;;;;;14.45;11.68;;;;;;;;;;5032233;28;20033;-77
2022/02/27 06:15:55;;;;;;;16.45;12.55;;;;;;;;;;5031365;28;20037;-76
2022/02/27 06:18:22;;;;;;;17.55;13.15;;;;;;;;;;5031315;28;20029;-77
2022/02/27 06:20:51;;;;;;;19.75;14.02;;;;;;;;;;5031588;28;20045;-77
2022/02/27 06:23:20;;;;;;;17.67;13.18;;;;;;;;;;5031190;28;20025;-77
2022/02/27 06:25:48;;;;;;;20.63;15.70;;;;;;;;;;5031862;28;20037;-77
2022/02/27 06:28:14;;;;;;;21.80;14.75;;;;;;;;;;5031134;28;20037;-77
2022/02/27 06:30:40;;;;;;;16.70;12.95;;;;;;;;;;5031831;28;20175;-76
2022/02/27 06:33:06;;;;;;;13.75;11.55;;;;;;;;;;5031194;28;20025;-77
2022/02/27 06:35:33;;;;;;;15.25;11.73;;;;;;;;;;5031320;28;20064;-77
2022/02/27 06:38:01;;;;;;;18.15;14.38;;;;;;;;;;5014349;28;20056;-77
2022/02/27 06:40:27;;;;;;;17.65;14.82;;;;;;;;;;5008109;28;20071;-77
2022/02/27 06:42:53;;;;;;;21.67;15.10;;;;;;;;;;5017916;28;20037;-77
2022/02/27 06:45:20;;;;;;;21.10;15.20;;;;;;;;;;5035236;28;20026;-76
2022/02/27 06:47:47;;;;;;;20.33;14.65;;;;;;;;;;5034957;28;20049;-77
2022/02/27 06:50:14;;;;;;;17.42;14.65;;;;;;;;;;5034565;28;20026;-78
2022/02/27 06:52:41;;;;;;;21.45;15.32;;;;;;;;;;5018141;28;20060;-78
2022/02/27 06:55:08;;;;;;;22.58;16.45;;;;;;;;;;5017852;28;20029;-79
2022/02/27 06:57:34;;;;;;;18.38;14.60;;;;;;;;;;5017321;28;20400;-77
2022/02/27 07:00:01;;;;;;;18.40;14.35;;;;;;;;;;5035101;28;20060;-77
2022/02/27 07:02:28;;;;;;;17.40;13.85;;;;;;;;;;5035398;28;20075;-77
2022/02/27 07:04:54;;;;;;;17.30;14.10;;;;;;;;;;5001625;28;20036;-77
2022/02/27 07:07:21;;;;;;;19.70;14.80;;;;;;;;;;5035423;28;20033;-77
2022/02/27 07:09:47;;;;;;;18.17;14.05;;;;;;;;;;5035407;28;20087;-78
2022/02/27 07:12:13;;;;;;;17.67;14.27;;;;;;;;;;5017641;28;20072;-77
2022/02/27 07:14:42;;;;;;;21.35;15.57;;;;;;;;;;5035254;28;20040;-77
2022/02/27 07:17:09;;;;;;;20.88;16.13;;;;;;;;;;5017844;28;20033;-77
2022/02/27 07:19:36;;;;;;;19.35;15.63;;;;;;;;;;5001124;28;20068;-77
2022/02/27 07:22:03;;;;;;;20.92;15.88;;;;;;;;;;5035062;28;20030;-77
2022/02/27 07:24:29;;;;;;;18.95;15.32;;;;;;;;;;5035092;28;20025;-78
2022/02/27 07:26:55;;;;;;;20.70;15.52;;;;;;;;;;5017568;28;20025;-78
2022/02/27 07:29:21;;;;;;;19.55;15.65;;;;;;;;;;5035020;28;20123;-77
2022/02/27 07:31:47;;;;;;;19.83;14.48;;;;;;;;;;5035114;28;20026;-78
2022/02/27 07:34:14;;;;;;;17.73;13.60;;;;;;;;;;5034969;28;20021;-78
2022/02/27 07:36:40;;;;;;;19.55;14.55;;;;;;;;;;5034775;28;20039;-78
2022/02/27 07:39:06;;;;;;;18.00;13.27;;;;;;;;;;5034855;28;20025;-78
2022/02/27 07:41:33;;;;;;;18.70;15.00;;;;;;;;;;5034649;28;20033;-78
2022/02/27 07:43:59;;;;;;;19.02;13.70;;;;;;;;;;5035017;28;20362;-78
2022/02/27 07:46:25;;;;;;;19.63;14.02;;;;;;;;;;5034511;28;20100;-77
2022/02/27 07:48:51;;;;;;;17.15;14.20;;;;;;;;;;5034675;28;20120;-77
2022/02/27 07:51:17;;;;;;;17.67;14.55;;;;;;;;;;5033458;28;20018;-78
2022/02/27 07:53:43;;;;;;;19.23;14.90;;;;;;;;;;5034385;28;20480;-78
2022/02/27 07:56:09;;;;;;;20.92;15.75;;;;;;;;;;5034682;28;20021;-78
2022/02/27 07:58:35;;;;;;;18.55;15.52;;;;;;;;;;5034429;28;20048;-78
2022/02/27 08:01:02;;;;;;;20.92;16.38;;;;;;;;;;5034366;28;20098;-78
2022/02/27 08:03:28;;;;;;;23.65;16.35;;;;;;;;;;5034165;28;20433;-78
2022/02/27 08:05:54;;;;;;;24.77;18.42;;;;;;;;;;5034526;28;20030;-78
2022/02/27 08:08:20;;;;;;;21.90;16.35;;;;;;;;;;5034413;28;20029;-78
2022/02/27 08:10:46;;;;;;;22.63;16.42;;;;;;;;;;5033975;28;20104;-78
2022/02/27 08:13:12;;;;;;;22.45;17.55;;;;;;;;;;5034321;28;20029;-78
2022/02/27 08:15:38;;;;;;;29.38;21.58;;;;;;;;;;5033878;28;20060;-78
2022/02/27 08:18:05;;;;;;;29.40;20.40;;;;;;;;;;5034069;28;20033;-78
2022/02/27 08:20:31;;;;;;;21.10;15.93;;;;;;;;;;5034154;28;20045;-78
2022/02/27 08:22:58;;;;;;;21.52;16.17;;;;;;;;;;5034077;28;20388;-78
2022/02/27 08:25:24;;;;;;;26.90;21.33;;;;;;;;;;5033893;28;20087;-78
2022/02/27 08:27:50;;;;;;;25.15;18.10;;;;;;;;;;5033560;28;20029;-78
2022/02/27 08:30:16;;;;;;;33.08;22.88;;;;;;;;;;5033893;28;20064;-78
2022/02/27 08:32:42;;;;;;;28.80;21.23;;;;;;;;;;5033329;28;20108;-78
2022/02/27 08:35:09;;;;;;;30.33;22.27;;;;;;;;;;5033870;28;20021;-78
2022/02/27 08:37:35;;;;;;;35.42;22.52;;;;;;;;;;5015579;28;20374;-78
2022/02/27 08:40:01;;;;;;;25.27;19.38;;;;;;;;;;5033462;28;20071;-78
2022/02/27 08:42:30;;;;;;;28.40;19.95;;;;;;;;;;5033542;28;20444;-78
2022/02/27 08:44:56;;;;;;;34.53;24.75;;;;;;;;;;5015246;28;20025;-78
2022/02/27 08:47:22;;;;;;;28.63;20.98;;;;;;;;;;5032612;28;20385;-78
2022/02/27 08:49:48;;;;;;;28.52;23.45;;;;;;;;;;5033284;28;20022;-78
2022/02/27 08:52:14;;;;;;;38.70;29.90;;;;;;;;;;5015677;28;20083;-78
2022/02/27 08:54:41;;;;;;;45.85;34.85;;;;;;;;;;5033060;28;20026;-78
2022/02/27 08:57:07;;;;;;;36.85;27.65;;;;;;;;;;5033234;28;20034;-78
2022/02/27 08:59:33;;;;;;;31.95;24.13;;;;;;;;;;5032671;28;20045;-78
2022/02/27 09:01:59;;;;;;;40.97;32.55;;;;;;;;;;5032558;28;20040;-78
2022/02/27 09:04:25;;;;;;;28.48;22.55;;;;;;;;;;5031798;28;20032;-78
2022/02/27 09:06:51;;;;;;;30.42;21.50;;;;;;;;;;5021848;28;20065;-78
2022/02/27 09:09:17;;;;;;;26.42;21.23;;;;;;;;;;5032505;28;20041;-76
2022/02/27 09:11:43;;;;;;;33.20;24.40;;;;;;;;;;5015116;28;20037;-78
2022/02/27 09:14:09;;;;;;;34.10;25.70;;;;;;;;;;5032833;28;20049;-78
2022/02/27 09:16:36;;;;;;;34.88;24.63;;;;;;;;;;5033018;28;20030;-78
2022/02/27 09:19:02;;;;;;;37.35;27.10;;;;;;;;;;5032959;28;20029;-78
2022/02/27 09:21:29;;;;;;;34.67;23.88;;;;;;;;;;5032909;28;20049;-78
2022/02/27 09:23:55;;;;;;;31.02;24.25;;;;;;;;;;5032958;28;20033;-79
2022/02/27 09:26:22;;;;;;;28.92;21.88;;;;;;;;;;5032715;28;20040;-79
2022/02/27 09:28:49;;;;;;;34.47;24.08;;;;;;;;;;5014584;28;20119;-78
2022/02/27 09:31:15;;;;;;;28.23;20.73;;;;;;;;;;5031623;28;20030;-78
2022/02/27 09:33:41;;;;;;;28.42;22.65;;;;;;;;;;5031992;28;20030;-78
2022/02/27 09:36:10;;;;;;;33.08;25.08;;;;;;;;;;5032022;28;20550;-77
2022/02/27 09:38:37;;;;;;;32.15;24.60;;;;;;;;;;5032696;28;20377;-77
2022/02/27 09:41:03;;;;;;;27.20;22.48;;;;;;;;;;5032044;28;20179;-78
2022/02/27 09:43:29;;;;;;;24.35;19.13;;;;;;;;;;5032352;28;20086;-79
2022/02/27 09:45:55;;;;;;;29.23;21.83;;;;;;;;;;5014621;28;20443;-77
2022/02/27 09:48:22;;;;;;;30.67;24.08;;;;;;;;;;5031511;28;20029;-78
2022/02/27 09:50:49;;;;;;;26.05;20.60;;;;;;;;;;5014124;28;20408;-80
2022/02/27 09:53:16;;;;;;;28.23;20.40;;;;;;;;;;5031818;28;20457;-78
2022/02/27 09:55:43;;;;;;;27.08;19.67;;;;;;;;;;5031761;28;20029;-77
2022/02/27 09:58:09;;;;;;;23.35;19.27;;;;;;;;;;5030762;28;20465;-78
2022/02/27 10:00:35;;;;;;;24.77;18.67;;;;;;;;;;5031957;28;20026;-76
2022/02/27 10:03:12;;;;;;;24.60;19.48;;;;;;;;;;5031979;28;20025;-76
2022/02/27 10:05:39;;;;;;;26.23;19.90;;;;;;;;;;5032093;28;20026;-77
2022/02/27 10:08:07;;;;;;;27.80;21.88;;;;;;;;;;5014449;28;20531;-76
2022/02/27 10:10:33;;;;;;;29.98;22.60;;;;;;;;;;5014166;28;20057;-78
2022/02/27 10:13:00;;;;;;;32.53;23.85;;;;;;;;;;5032113;28;20427;-76
2022/02/27 10:15:26;;;;;;;26.77;21.42;;;;;;;;;;5031448;28;20495;-78
2022/02/27 10:17:53;;;;;;;26.08;19.40;;;;;;;;;;5032050;28;20497;-78
2022/02/27 10:20:24;;;;;;;24.42;20.30;;;;;;;;;;5032217;28;20037;-75
2022/02/27 10:22:51;;;;;;;25.40;19.75;;;;;;;;;;5031864;28;20104;-77
2022/02/27 10:25:28;;;;;;;23.30;18.38;;;;;;;;;;5032213;28;20025;-78
2022/02/27 10:27:58;;;;;;;22.52;17.90;;;;;;;;;;5031679;28;20057;-76
2022/02/27 10:30:28;;;;;;;23.35;19.25;;;;;;;;;;5032070;28;20100;-78
2022/02/27 10:33:13;;;;;;;22.92;18.58;;;;;;;;;;5031575;28;20017;-78
2022/02/27 10:35:50;;;;;;;17.67;15.27;;;;;;;;;;5031525;28;20061;-76
2022/02/27 10:38:51;;;;;;;25.67;21.20;;;;;;;;;;5031846;28;20032;-76
2022/02/27 10:41:21;;;;;;;25.40;20.55;;;;;;;;;;5031882;28;20040;-75
2022/02/27 10:43:47;;;;;;;24.55;19.92;;;;;;;;;;5031689;28;20026;-74
2022/02/27 10:46:14;;;;;;;22.90;19.58;;;;;;;;;;5031959;28;20381;-76
2022/02/27 10:48:41;;;;;;;20.05;15.85;;;;;;;;;;5031876;28;20029;-76
2022/02/27 10:51:12;;;;;;;18.35;16.05;;;;;;;;;;5031602;28;20034;-77
2022/02/27 10:53:39;;;;;;;25.90;19.92;;;;;;;;;;5031643;28;20561;-77
2022/02/27 10:56:06;;;;;;;20.67;16.55;;;;;;;;;;5031616;28;20081;-78
2022/02/27 10:58:51;;;;;;;20.30;15.68;;;;;;;;;;5031607;28;20021;-76
2022/02/27 11:01:21;;;;;;;19.42;16.50;;;;;;;;;;5031703;28;20065;-78
2022/02/27 11:03:52;;;;;;;17.38;15.00;;;;;;;;;;5031614;28;20061;-76
2022/02/27 11:06:18;;;;;;;14.30;11.90;;;;;;;;;;5031687;28;20055;-76
2022/02/27 11:08:45;;;;;;;15.75;13.02;;;;;;;;;;5031249;28;20542;-76
2022/02/27 11:11:11;;;;;;;17.55;14.75;;;;;;;;;;5031720;28;20477;-76
2022/02/27 11:13:38;;;;;;;15.90;13.13;;;;;;;;;;5031214;28;20026;-78
2022/02/27 11:16:04;;;;;;;13.23;11.30;;;;;;;;;;5031557;28;20108;-75
2022/02/27 11:18:30;;;;;;;15.88;13.00;;;;;;;;;;5031108;28;20379;-75
2022/02/27 11:20:57;;;;;;;16.98;14.43;;;;;;;;;;5031398;28;20038;-75
2022/02/27 11:23:24;;;;;;;15.15;12.95;;;;;;;;;;5031434;28;20029;-75
2022/02/27 11:25:51;;;;;;;15.43;12.25;;;;;;;;;;5031948;28;20036;-74
2022/02/27 11:28:21;;;;;;;13.38;11.30;;;;;;;;;;5035079;28;20457;-75
2022/02/27 11:30:48;;;;;;;14.82;12.27;;;;;;;;;;5034774;28;20104;-75
2022/02/27 11:33:24;;;;;;;14.30;11.77;;;;;;;;;;5034916;28;20408;-75
2022/02/27 11:35:55;;;;;;;15.93;13.45;;;;;;;;;;5034707;28;20034;-76
2022/02/27 11:38:31;;;;;;;13.07;11.32;;;;;;;;;;5034440;28;20033;-76
2022/02/27 11:41:14;;;;;;;19.58;16.65;;;;;;;;;;5034635;28;20037;-76
2022/02/27 11:43:57;;;;;;;31.00;26.30;;;;;;;;;;5034716;28;20037;-75
2022/02/27 11:46:37;;;;;;;20.52;17.33;;;;;;;;;;5034761;28;20030;-77
2022/02/27 11:49:06;;;;;;;23.13;19.90;;;;;;;;;;5034524;28;20033;-76
2022/02/27 11:51:39;;;;;;;25.35;21.80;;;;;;;;;;5034305;28;20025;-76
2022/02/27 11:54:08;;;;;;;18.23;15.93;;;;;;;;;;5034390;28;20033;-75
2022/02/27 11:56:36;;;;;;;18.20;15.23;;;;;;;;;;5034310;28;20083;-77
2022/02/27 11:59:02;;;;;;;15.95;13.13;;;;;;;;;;5034528;28;20045;-76
2022/02/27 12:01:47;;;;;;;14.27;12.75;;;;;;;;;;5034083;28;20088;-77
2022/02/27 12:04:22;;;;;;;14.10;11.45;;;;;;;;;;5034109;28;20104;-77
2022/02/27 12:07:05;;;;;;;12.07;10.73;;;;;;;;;;5034263;28;20485;-75
2022/02/27 12:09:52;;;;;;;15.05;12.23;;;;;;;;;;5033789;28;20400;-76
2022/02/27 12:12:32;;;;;;;14.88;11.82;;;;;;;;;;5034196;28;20033;-76
2022/02/27 12:15:17;;;;;;;15.98;13.68;;;;;;;;;;5033519;28;20079;-75
2022/02/27 12:17:43;;;;;;;;;;;;;;;;;;5034539;28;20103;-77
2022/02/27 12:20:10;;;;;;;14.43;11.07;;;;;;;;;;5033812;28;20360;-76
2022/02/27 12:22:54;;;;;;;15.63;12.77;;;;;;;;;;5015965;28;20022;-77
2022/02/27 12:25:20;;;;;;;;;;;;;;;;;;5034139;28;20104;-77
2022/02/27 12:27:47;;;;;;;13.13;10.68;;;;;;;;;;5033852;28;20007;-76
2022/02/27 12:30:17;;;;;;;16.65;12.80;;;;;;;;;;5033509;28;20025;-76
2022/02/27 12:32:44;;;;;;;16.92;13.55;;;;;;;;;;5033470;28;20552;-75
2022/02/27 12:35:10;;;;;;;14.15;12.32;;;;;;;;;;5033509;28;20351;-77
2022/02/27 12:37:36;;;;;;;18.80;15.15;;;;;;;;;;5033084;28;20030;-76
2022/02/27 12:40:02;;;;;;;19.55;15.50;;;;;;;;;;5033276;28;20477;-76
2022/02/27 12:42:32;;;;;;;17.20;14.13;;;;;;;;;;5033536;28;20029;-77
2022/02/27 12:44:58;;;;;;;19.33;15.63;;;;;;;;;;5033078;28;20072;-77
2022/02/27 12:47:26;;;;;;;16.73;12.95;;;;;;;;;;5033170;28;20469;-77
2022/02/27 12:50:18;;;;;;;15.00;12.27;;;;;;;;;;5033172;28;20025;-77
2022/02/27 12:52:45;;;;;;;15.57;11.85;;;;;;;;;;5033126;28;20072;-77
2022/02/27 12:55:11;;;;;;;12.98;11.57;;;;;;;;;;5033511;28;20029;-77
2022/02/27 12:57:41;;;;;;;17.63;14.18;;;;;;;;;;5033140;28;20029;-77
2022/02/27 13:00:08;;;;;;;14.25;11.98;;;;;;;;;;5033042;28;20033;-77
2022/02/27 13:02:34;;;;;;;10.65;9.32;;;;;;;;;;5033190;28;20029;-78
2022/02/27 13:05:01;;;;;;;9.07;8.18;;;;;;;;;;5032647;28;20033;-78
2022/02/27 13:07:28;;;;;;;12.57;10.32;;;;;;;;;;5033067;28;20112;-77
2022/02/27 13:09:55;;;;;;;16.73;13.40;;;;;;;;;;5032579;28;20075;-77
2022/02/27 13:12:22;;;;;;;26.90;21.55;;;;;;;;;;5033012;28;20022;-78
2022/02/27 13:15:02;;;;;;;21.10;14.65;;;;;;;;;;5032645;28;20025;-77
2022/02/27 13:17:33;;;;;;;11.93;9.73;;;;;;;;;;5032587;28;20112;-79
2022/02/27 13:20:04;;;;;;;12.88;9.65;;;;;;;;;;5032431;28;20025;-78
2022/02/27 13:22:34;;;;;;;24.67;18.08;;;;;;;;;;5032486;28;20062;-78
2022/02/27 13:25:02;;;;;;;12.95;9.50;;;;;;;;;;5032857;28;20025;-76
2022/02/27 13:27:48;;;;;;;12.23;8.25;;;;;;;;;;5032285;28;20033;-78
2022/02/27 13:30:33;;;;;;;21.00;15.25;;;;;;;;;;5032237;28;20037;-77
2022/02/27 13:33:01;;;;;;;17.70;11.10;;;;;;;;;;5032320;28;20025;-78
2022/02/27 13:35:27;;;;;;;14.40;10.18;;;;;;;;;;5032490;28;20025;-78
2022/02/27 13:37:55;;;;;;;13.38;8.85;;;;;;;;;;5032105;28;20057;-78
2022/02/27 13:40:23;;;;;;;14.27;10.02;;;;;;;;;;5032476;28;20040;-77
2022/02/27 13:42:50;;;;;;;11.75;7.82;;;;;;;;;;5032278;28;20053;-77
2022/02/27 13:45:35;;;;;;;11.35;7.22;;;;;;;;;;5032566;28;20032;-78
2022/02/27 13:48:05;;;;;;;7.20;4.97;;;;;;;;;;5032283;28;20049;-77
2022/02/27 13:50:32;;;;;;;7.68;6.03;;;;;;;;;;5032210;28;20451;-78
2022/02/27 13:53:16;;;;;;;9.68;8.02;;;;;;;;;;5032166;28;20033;-77
2022/02/27 13:55:44;;;;;;;7.40;5.47;;;;;;;;;;5032309;28;20029;-77
2022/02/27 13:58:17;;;;;;;7.05;6.35;;;;;;;;;;5014446;28;20397;-78
2022/02/27 14:00:52;;;;;;;12.98;9.50;;;;;;;;;;5032233;28;20045;-77
2022/02/27 14:03:19;;;;;;;10.63;9.32;;;;;;;;;;5032213;28;20040;-77
2022/02/27 14:06:03;;;;;;;13.07;10.15;;;;;;;;;;5031949;28;20092;-77
2022/02/27 14:08:31;;;;;;;11.52;10.30;;;;;;;;;;5032009;28;20029;-77
2022/02/27 14:11:15;;;;;;;14.70;11.85;;;;;;;;;;5031603;28;20061;-78
2022/02/27 14:13:45;;;;;;;12.50;9.18;;;;;;;;;;5031721;28;20519;-77
2022/02/27 14:16:12;;;;;;;16.80;13.70;;;;;;;;;;5031972;28;20037;-77
2022/02/27 14:18:40;;;;;;;11.77;10.57;;;;;;;;;;5031814;28;20029;-78
2022/02/27 14:21:29;;;;;;;8.77;6.88;;;;;;;;;;5031921;28;20049;-77
2022/02/27 14:23:56;;;;;;;6.70;5.72;;;;;;;;;;5031845;28;20374;-77
2022/02/27 14:26:24;;;;;;;12.27;10.85;;;;;;;;;;5031738;28;20697;-77
2022/02/27 14:28:54;;;;;;;8.60;6.45;;;;;;;;;;5031920;28;20029;-77
2022/02/27 14:31:29;;;;;;;11.40;8.98;;;;;;;;;;5031704;28;20032;-77
2022/02/27 14:33:57;;;;;;;13.48;11.63;;;;;;;;;;5031866;28;20419;-77
2022/02/27 14:36:24;;;;;;;14.00;11.60;;;;;;;;;;5031628;28;20030;-77
2022/02/27 14:38:52;;;;;;;10.57;8.07;;;;;;;;;;5031875;28;20048;-77
2022/02/27 14:41:21;;;;;;;15.82;11.13;;;;;;;;;;5031452;28;20045;-77
2022/02/27 14:43:48;;;;;;;16.50;13.63;;;;;;;;;;5031824;28;20030;-77
2022/02/27 14:46:14;;;;;;;14.82;11.00;;;;;;;;;;5031482;28;20029;-77
2022/02/27 14:48:40;;;;;;;15.00;11.48;;;;;;;;;;5031723;28;20034;-77
2022/02/27 14:51:10;;;;;;;14.40;12.88;;;;;;;;;;5031563;28;20036;-77
2022/02/27 14:53:37;;;;;;;12.80;11.10;;;;;;;;;;5031810;28;20434;-77
2022/02/27 14:56:03;;;;;;;15.93;11.88;;;;;;;;;;5031472;28;20029;-77
2022/02/27 14:58:31;;;;;;;16.40;14.27;;;;;;;;;;5031760;28;20029;-77
2022/02/27 15:00:58;;;;;;;18.15;13.85;;;;;;;;;;5032620;28;20048;-78
2022/02/27 15:03:24;;;;;;;18.80;14.23;;;;;;;;;;5035251;28;20385;-77
2022/02/27 15:05:50;;;;;;;13.25;11.40;;;;;;;;;;5035431;28;20029;-77
2022/02/27 15:08:17;;;;;;;16.85;12.13;;;;;;;;;;5035128;28;20032;-77
2022/02/27 15:10:44;;;;;;;30.73;21.42;;;;;;;;;;5034947;28;20088;-77